Time;durP1;ratioP1;P1;durP2;ratioP2;P2;SDS_P1;SDS_P2;PMS_P1;PMS_P2;Temp;Humidity;BMP_temperature;BMP_pressure;BME280_temperature;BME280_humidity;BME280_pressure;Samples;Min_cycle;Max_cycle;Signal;HPM_P1;HPM_P2
2023/12/18 00:00:36;;;;;;;4.60;3.15;;;3.80;99.90;;;;;;5042010;28;20506;-74
2023/12/18 00:03:03;;;;;;;5.45;3.90;;;3.80;99.90;;;;;;5038522;28;20057;-75
2023/12/18 00:05:29;;;;;;;7.35;4.07;;;3.90;99.90;;;;;;5042178;28;20131;-74
2023/12/18 00:07:54;;;;;;;7.72;3.97;;;3.90;99.90;;;;;;5042309;28;20112;-74
2023/12/18 00:10:20;;;;;;;6.43;4.10;;;4.00;99.90;;;;;;5042191;28;20513;-73
2023/12/18 00:12:45;;;;;;;7.57;3.92;;;4.00;99.90;;;;;;5042153;28;20056;-54
2023/12/18 00:15:10;;;;;;;7.32;4.63;;;4.10;99.90;;;;;;5043966;28;20029;-52
2023/12/18 00:17:36;;;;;;;7.30;4.68;;;4.10;99.90;;;;;;5041868;28;20017;-55
2023/12/18 00:20:02;;;;;;;7.22;3.72;;;4.10;99.90;;;;;;5041859;28;20069;-54
2023/12/18 00:22:27;;;;;;;5.68;3.35;;;4.20;99.90;;;;;;5040496;28;20104;-53
2023/12/18 00:24:53;;;;;;;5.30;3.65;;;4.20;99.90;;;;;;5042027;28;20482;-56
2023/12/18 00:27:18;;;;;;;6.38;3.72;;;4.30;99.90;;;;;;5043525;28;20060;-56
2023/12/18 00:29:44;;;;;;;8.63;4.60;;;4.30;99.90;;;;;;5042010;28;20490;-55
2023/12/18 00:32:09;;;;;;;4.85;3.35;;;4.40;99.90;;;;;;5037246;28;20083;-52
2023/12/18 00:34:35;;;;;;;6.22;3.78;;;4.40;99.90;;;;;;5041602;28;20037;-56
2023/12/18 00:37:00;;;;;;;7.38;3.75;;;4.50;99.90;;;;;;5040117;28;20035;-56
2023/12/18 00:39:25;;;;;;;8.57;4.30;;;4.50;99.90;;;;;;5038129;28;20107;-56
2023/12/18 00:41:54;;;;;;;8.30;3.40;;;4.60;99.90;;;;;;5043414;28;20470;-56
2023/12/18 00:44:19;;;;;;;5.22;3.22;;;4.70;99.90;;;;;;5041372;28;20467;-57
2023/12/18 00:46:45;;;;;;;5.63;3.22;;;4.80;99.90;;;;;;5040472;28;20071;-57
2023/12/18 00:49:10;;;;;;;5.50;3.25;;;4.80;99.90;;;;;;5040009;28;20362;-52
2023/12/18 00:51:35;;;;;;;5.85;3.22;;;4.90;99.90;;;;;;5041704;28;20111;-56
2023/12/18 00:54:01;;;;;;;6.72;3.33;;;4.90;99.90;;;;;;5035256;28;20604;-56
2023/12/18 00:56:26;;;;;;;7.47;3.80;;;5.00;99.90;;;;;;5035019;28;20117;-56
2023/12/18 00:58:52;;;;;;;7.88;3.80;;;5.00;99.90;;;;;;5037133;28;20033;-53
2023/12/18 01:01:17;;;;;;;4.85;3.25;;;5.10;99.90;;;;;;5034292;28;20033;-56
2023/12/18 01:03:43;;;;;;;5.32;3.42;;;5.10;99.90;;;;;;5035546;28;20033;-56
2023/12/18 01:06:08;;;;;;;5.70;3.83;;;5.20;99.90;;;;;;5040927;28;20009;-57
2023/12/18 01:08:34;;;;;;;5.75;3.70;;;5.20;99.90;;;;;;5041072;28;20055;-55
2023/12/18 01:11:00;;;;;;;4.88;3.47;;;5.30;99.90;;;;;;5041659;28;20029;-55
2023/12/18 01:13:26;;;;;;;7.78;4.57;;;5.30;99.90;;;;;;5042627;28;20017;-56
2023/12/18 01:15:51;;;;;;;7.03;3.95;;;5.30;99.90;;;;;;5041026;28;20102;-58
2023/12/18 01:18:17;;;;;;;6.85;4.05;;;5.30;99.90;;;;;;5040638;28;20461;-55
2023/12/18 01:20:42;;;;;;;6.43;3.78;;;5.30;99.90;;;;;;5040647;28;20371;-56
2023/12/18 01:23:08;;;;;;;6.45;3.72;;;5.40;99.90;;;;;;5040688;28;20036;-57
2023/12/18 01:25:33;;;;;;;6.38;3.60;;;5.40;99.90;;;;;;5042535;28;20116;-55
2023/12/18 01:27:59;;;;;;;6.55;4.00;;;5.50;99.90;;;;;;5039267;28;20098;-57
2023/12/18 01:30:25;;;;;;;7.63;3.75;;;5.50;99.90;;;;;;5036236;28;20033;-53
2023/12/18 01:32:51;;;;;;;6.10;3.72;;;5.50;99.90;;;;;;5040440;28;20116;-54
2023/12/18 01:35:16;;;;;;;7.03;4.25;;;5.50;99.90;;;;;;5038898;28;20180;-56
2023/12/18 01:37:42;;;;;;;5.68;3.78;;;5.50;99.90;;;;;;5040499;28;20079;-54
2023/12/18 01:40:08;;;;;;;6.65;3.50;;;5.50;99.90;;;;;;5041878;28;20039;-57
2023/12/18 01:42:33;;;;;;;6.20;4.05;;;5.50;99.90;;;;;;5040600;28;20082;-54
2023/12/18 01:44:59;;;;;;;7.38;3.63;;;5.60;99.90;;;;;;5039978;28;20566;-57
2023/12/18 01:47:25;;;;;;;7.68;3.88;;;5.50;99.90;;;;;;5040024;28;20618;-57
2023/12/18 01:49:50;;;;;;;5.18;3.38;;;5.50;99.90;;;;;;5040034;28;20395;-57
2023/12/18 01:52:17;;;;;;;5.75;3.83;;;5.50;99.90;;;;;;5035876;28;20025;-56
2023/12/18 01:54:44;;;;;;;7.10;3.42;;;5.50;99.90;;;;;;5035657;28;20029;-56
2023/12/18 01:57:10;;;;;;;5.38;3.13;;;5.50;99.90;;;;;;5033836;28;20056;-56
2023/12/18 01:59:36;;;;;;;5.53;3.38;;;5.50;99.90;;;;;;5030160;28;20506;-52
2023/12/18 02:02:02;;;;;;;5.15;3.08;;;5.60;99.90;;;;;;5035729;28;20584;-56
2023/12/18 02:04:27;;;;;;;5.78;3.55;;;5.60;99.90;;;;;;5039992;28;20020;-56
2023/12/18 02:06:53;;;;;;;7.53;3.85;;;5.60;99.90;;;;;;5040058;28;20033;-54
2023/12/18 02:09:18;;;;;;;4.90;3.58;;;5.60;99.90;;;;;;5029722;28;20045;-57
2023/12/18 02:11:45;;;;;;;6.38;4.03;;;5.60;99.90;;;;;;5041832;28;20402;-57
2023/12/18 02:14:11;;;;;;;6.93;3.75;;;5.60;99.90;;;;;;5037623;28;20021;-55
2023/12/18 02:16:36;;;;;;;5.32;3.63;;;5.60;99.90;;;;;;5039661;28;20086;-55
2023/12/18 02:19:02;;;;;;;5.85;3.63;;;5.60;99.90;;;;;;5040043;28;20021;-56
2023/12/18 02:21:27;;;;;;;6.72;3.60;;;5.70;99.90;;;;;;5034328;28;20127;-57
2023/12/18 02:23:53;;;;;;;6.43;3.75;;;5.70;99.90;;;;;;5038925;28;20025;-56
2023/12/18 02:26:19;;;;;;;7.05;3.47;;;5.70;99.90;;;;;;5039537;28;20036;-54
2023/12/18 02:28:45;;;;;;;6.18;3.50;;;5.70;99.90;;;;;;5041748;28;20029;-57
2023/12/18 02:31:14;;;;;;;7.28;3.58;;;5.70;99.90;;;;;;5039749;28;20112;-57
2023/12/18 02:33:41;;;;;;;4.80;3.10;;;5.80;99.90;;;;;;5039525;28;20501;-56
2023/12/18 02:36:07;;;;;;;5.70;3.25;;;5.70;99.90;;;;;;5034904;28;20058;-51
2023/12/18 02:38:33;;;;;;;6.65;3.55;;;5.80;99.90;;;;;;5039166;28;20033;-56
2023/12/18 02:40:59;;;;;;;7.03;3.85;;;5.80;99.90;;;;;;5035076;28;20056;-56
2023/12/18 02:43:25;;;;;;;7.88;3.83;;;5.80;99.90;;;;;;5039561;28;20025;-56
2023/12/18 02:45:50;;;;;;;8.95;3.92;;;5.90;99.90;;;;;;5039402;28;20056;-56
2023/12/18 02:48:16;;;;;;;5.25;3.60;;;5.90;99.90;;;;;;5032452;28;20035;-55
2023/12/18 02:50:41;;;;;;;9.45;4.03;;;5.90;99.90;;;;;;5033035;28;20017;-55
2023/12/18 02:53:07;;;;;;;5.95;4.07;;;6.00;99.90;;;;;;5033744;28;20032;-56
2023/12/18 02:55:32;;;;;;;8.05;4.70;;;6.00;99.90;;;;;;5031239;28;20099;-57
2023/12/18 02:57:58;;;;;;;7.95;4.28;;;6.00;99.90;;;;;;5034765;28;20399;-53
2023/12/18 03:00:23;;;;;;;7.80;4.90;;;6.10;99.90;;;;;;5033456;28;20507;-56
2023/12/18 03:02:49;;;;;;;9.00;4.80;;;6.10;99.90;;;;;;5031829;28;20577;-56
2023/12/18 03:05:15;;;;;;;8.13;4.90;;;6.10;99.90;;;;;;5034991;28;20502;-56
2023/12/18 03:07:40;;;;;;;8.15;4.88;;;6.10;99.90;;;;;;5033576;28;20411;-55
2023/12/18 03:10:06;;;;;;;9.70;5.47;;;6.20;99.90;;;;;;5036080;28;20028;-55
2023/12/18 03:12:32;;;;;;;10.10;4.63;;;6.20;99.90;;;;;;5043045;28;20399;-55
2023/12/18 03:14:57;;;;;;;9.55;4.95;;;6.20;99.90;;;;;;5045119;28;20115;-51
2023/12/18 03:17:23;;;;;;;8.63;5.25;;;6.20;99.90;;;;;;5043269;28;20025;-56
2023/12/18 03:19:48;;;;;;;8.38;4.55;;;6.30;99.90;;;;;;5042931;28;20501;-53
2023/12/18 03:22:14;;;;;;;9.18;5.65;;;6.30;99.90;;;;;;5043195;28;20033;-55
2023/12/18 03:24:40;;;;;;;8.75;5.22;;;6.30;99.90;;;;;;5037468;28;20398;-54
2023/12/18 03:27:05;;;;;;;9.90;5.90;;;6.30;99.90;;;;;;5034567;28;20035;-55
2023/12/18 03:29:31;;;;;;;11.65;6.13;;;6.30;99.90;;;;;;5036939;28;20033;-61
2023/12/18 03:31:56;;;;;;;9.75;6.47;;;6.30;99.90;;;;;;5038397;28;20120;-49
2023/12/18 03:34:22;;;;;;;9.82;6.18;;;6.40;99.90;;;;;;5034566;28;20022;-55
2023/12/18 03:36:47;;;;;;;13.27;7.03;;;6.40;99.90;;;;;;5037124;28;20028;-56
2023/12/18 03:39:13;;;;;;;10.23;6.47;;;6.40;99.90;;;;;;5033360;28;20029;-53
2023/12/18 03:41:38;;;;;;;11.48;7.28;;;6.40;99.90;;;;;;5032884;28;20037;-56
2023/12/18 03:44:04;;;;;;;14.05;7.18;;;6.50;99.90;;;;;;5036493;28;20029;-55
2023/12/18 03:46:29;;;;;;;13.00;7.28;;;6.50;99.90;;;;;;5034138;28;20398;-56
2023/12/18 03:48:55;;;;;;;12.48;7.60;;;6.50;99.90;;;;;;5033244;28;20411;-74
2023/12/18 03:51:20;;;;;;;12.60;8.43;;;6.60;99.90;;;;;;5036128;28;20493;-75
2023/12/18 03:53:46;;;;;;;16.02;8.88;;;6.60;99.90;;;;;;5040785;28;20227;-75
2023/12/18 03:56:11;;;;;;;18.95;9.82;;;6.60;99.90;;;;;;5034117;28;20399;-72
2023/12/18 03:58:37;;;;;;;19.05;11.43;;;6.70;99.90;;;;;;5038053;28;20099;-74
2023/12/18 04:01:02;;;;;;;18.73;11.57;;;6.70;99.90;;;;;;5036346;28;20395;-74
2023/12/18 04:03:28;;;;;;;17.33;10.02;;;6.80;99.90;;;;;;5042042;28;20025;-75
2023/12/18 04:05:53;;;;;;;15.95;10.82;;;6.90;99.90;;;;;;5042426;28;20021;-74
2023/12/18 04:08:19;;;;;;;21.88;11.57;;;6.90;99.90;;;;;;5036395;28;20025;-74
2023/12/18 04:10:44;;;;;;;18.30;12.25;;;7.00;99.90;;;;;;5034057;28;20025;-74
2023/12/18 04:13:10;;;;;;;20.33;11.43;;;7.00;99.90;;;;;;5038006;28;20029;-68
2023/12/18 04:15:35;;;;;;;21.48;11.55;;;7.00;99.90;;;;;;5035807;28;20083;-74
2023/12/18 04:18:01;;;;;;;19.60;11.45;;;7.10;99.90;;;;;;5035085;28;20047;-74
2023/12/18 04:20:26;;;;;;;20.15;12.10;;;7.10;99.90;;;;;;5034310;28;20033;-74
2023/12/18 04:22:52;;;;;;;21.67;11.57;;;7.10;99.90;;;;;;5035572;28;20025;-74
2023/12/18 04:25:17;;;;;;;21.17;12.30;;;7.20;99.90;;;;;;5029593;28;20025;-74
2023/12/18 04:27:43;;;;;;;24.35;12.40;;;7.20;99.90;;;;;;5038995;28;20068;-75
2023/12/18 04:30:09;;;;;;;22.55;12.05;;;7.20;99.90;;;;;;5037703;28;20029;-75
2023/12/18 04:32:34;;;;;;;15.75;10.38;;;7.20;99.90;;;;;;5035099;28;20609;-74
2023/12/18 04:35:00;;;;;;;23.40;11.57;;;7.20;99.90;;;;;;5036436;28;20120;-74
2023/12/18 04:37:26;;;;;;;18.92;10.93;;;7.20;99.90;;;;;;5033548;28;20022;-74
2023/12/18 04:39:51;;;;;;;17.58;11.00;;;7.20;99.90;;;;;;5027077;28;20395;-73
2023/12/18 04:42:16;;;;;;;18.13;9.85;;;7.20;99.90;;;;;;5039115;28;20393;-73
2023/12/18 04:44:42;;;;;;;17.80;10.50;;;7.20;99.90;;;;;;5042008;28;20041;-75
2023/12/18 04:47:07;;;;;;;19.00;10.80;;;7.20;99.90;;;;;;5037436;28;20043;-75
2023/12/18 04:49:33;;;;;;;21.10;11.27;;;7.20;99.90;;;;;;5041913;28;20036;-75
2023/12/18 04:51:58;;;;;;;17.48;11.73;;;7.20;99.90;;;;;;5035868;28;20033;-75
2023/12/18 04:54:24;;;;;;;18.10;10.82;;;7.20;99.90;;;;;;5041602;28;20424;-74
2023/12/18 04:56:49;;;;;;;15.98;10.57;;;7.20;99.90;;;;;;5043262;28;20049;-74
2023/12/18 04:59:15;;;;;;;19.35;10.55;;;7.20;99.90;;;;;;5044272;28;20527;-75
2023/12/18 05:01:40;;;;;;;19.25;10.95;;;7.20;99.90;;;;;;5041364;28;20045;-74
2023/12/18 05:04:06;;;;;;;21.52;10.90;;;7.20;99.90;;;;;;5041475;28;20109;-75
2023/12/18 05:06:31;;;;;;;19.50;10.52;;;7.20;99.90;;;;;;5041214;28;20032;-74
2023/12/18 05:08:57;;;;;;;15.68;10.38;;;7.20;99.90;;;;;;5041364;28;20024;-74
2023/12/18 05:11:24;;;;;;;17.05;11.23;;;7.20;99.90;;;;;;5041511;28;20029;-74
2023/12/18 05:13:50;;;;;;;21.88;12.15;;;7.20;99.90;;;;;;5039050;28;20036;-75
2023/12/18 05:16:18;;;;;;;17.92;10.43;;;7.20;99.90;;;;;;5036362;28;20036;-75
2023/12/18 05:18:44;;;;;;;16.88;10.73;;;7.30;99.90;;;;;;5033104;28;20029;-74
2023/12/18 05:21:10;;;;;;;15.35;10.13;;;7.20;99.90;;;;;;5035551;28;20043;-74
2023/12/18 05:23:36;;;;;;;19.13;10.35;;;7.30;99.90;;;;;;5034415;28;20148;-74
2023/12/18 05:26:02;;;;;;;20.90;10.60;;;7.30;99.90;;;;;;5036942;28;20550;-73
2023/12/18 05:28:28;;;;;;;14.75;10.48;;;7.30;99.90;;;;;;5038713;28;20441;-73
2023/12/18 05:30:53;;;;;;;19.75;11.00;;;7.30;99.90;;;;;;5032594;28;20382;-74
2023/12/18 05:33:19;;;;;;;18.85;11.75;;;7.20;99.90;;;;;;5031600;28;20067;-74
2023/12/18 05:35:44;;;;;;;18.58;10.35;;;7.20;99.90;;;;;;5030649;28;20396;-74
2023/12/18 05:38:10;;;;;;;17.30;10.57;;;7.30;99.90;;;;;;5033788;28;20039;-72
2023/12/18 05:40:36;;;;;;;19.88;10.48;;;7.30;99.90;;;;;;5032964;28;20493;-77
2023/12/18 05:43:02;;;;;;;16.60;9.75;;;7.30;99.90;;;;;;5040372;28;20103;-74
2023/12/18 05:45:28;;;;;;;17.00;10.35;;;7.30;99.90;;;;;;5033516;28;20022;-75
2023/12/18 05:47:54;;;;;;;20.83;10.65;;;7.30;99.90;;;;;;5035532;28;20056;-74
2023/12/18 05:50:19;;;;;;;14.75;9.00;;;7.30;99.90;;;;;;5031937;28;20057;-73
2023/12/18 05:52:45;;;;;;;16.08;10.20;;;7.30;99.90;;;;;;5033954;28;20029;-73
2023/12/18 05:55:10;;;;;;;18.10;10.20;;;7.30;99.90;;;;;;5037978;28;20029;-76
2023/12/18 05:57:37;;;;;;;16.92;10.05;;;7.30;99.90;;;;;;5038078;28;20456;-75
2023/12/18 06:00:04;;;;;;;13.93;9.38;;;7.30;99.90;;;;;;5039573;28;20367;-75
2023/12/18 06:02:29;;;;;;;19.55;10.13;;;7.30;99.90;;;;;;5038932;28;20033;-76
2023/12/18 06:04:55;;;;;;;15.23;8.82;;;7.30;99.90;;;;;;5038865;28;20028;-75
2023/12/18 06:07:20;;;;;;;14.57;8.38;;;7.30;99.90;;;;;;5038380;28;20033;-75
2023/12/18 06:09:46;;;;;;;13.85;8.50;;;7.30;99.90;;;;;;5038832;28;20112;-77
2023/12/18 06:12:11;;;;;;;15.45;8.95;;;7.30;99.90;;;;;;5040801;28;20542;-75
2023/12/18 06:14:37;;;;;;;14.48;9.68;;;7.30;99.90;;;;;;5033222;28;20033;-72
2023/12/18 06:17:03;;;;;;;13.43;8.85;;;7.30;99.90;;;;;;5040447;28;20451;-54
2023/12/18 06:19:28;;;;;;;15.00;10.60;;;7.30;99.90;;;;;;5039192;28;20082;-55
2023/12/18 06:21:54;;;;;;;16.15;10.73;;;7.30;99.90;;;;;;5036574;28;20477;-75
2023/12/18 06:24:19;;;;;;;16.77;11.40;;;7.30;99.90;;;;;;5035731;28;20028;-76
2023/12/18 06:26:45;;;;;;;18.92;10.20;;;7.30;99.90;;;;;;5035476;28;20283;-73
2023/12/18 06:29:10;;;;;;;14.20;10.32;;;7.30;99.90;;;;;;5036791;28;20108;-74
2023/12/18 06:31:36;;;;;;;16.02;9.73;;;7.30;99.90;;;;;;5031114;28;20029;-74
2023/12/18 06:34:01;;;;;;;17.45;10.00;;;7.30;99.90;;;;;;5031358;28;20022;-75
2023/12/18 06:36:27;;;;;;;16.90;9.95;;;7.30;99.90;;;;;;5034434;28;20636;-75
2023/12/18 06:38:52;;;;;;;15.75;9.68;;;7.30;99.90;;;;;;5026313;28;20068;-75
2023/12/18 06:41:18;;;;;;;16.40;9.40;;;7.30;99.90;;;;;;5033310;28;20030;-75
2023/12/18 06:43:44;;;;;;;14.27;9.05;;;7.30;99.90;;;;;;5035074;28;20089;-75
2023/12/18 06:46:10;;;;;;;19.00;10.05;;;7.30;99.90;;;;;;5035170;28;20041;-75
2023/12/18 06:48:35;;;;;;;16.60;9.65;;;7.30;99.90;;;;;;5037191;28;20474;-75
2023/12/18 06:51:01;;;;;;;16.23;10.27;;;7.20;99.90;;;;;;5032635;28;20040;-74
2023/12/18 06:53:26;;;;;;;15.68;9.80;;;7.30;99.90;;;;;;5039000;28;20091;-74
2023/12/18 06:55:52;;;;;;;17.58;9.93;;;7.30;99.90;;;;;;5037454;28;20029;-75
2023/12/18 06:58:17;;;;;;;19.15;9.57;;;7.30;99.90;;;;;;5038926;28;20534;-74
2023/12/18 07:00:43;;;;;;;15.77;9.45;;;7.30;99.90;;;;;;5039289;28;20029;-75
2023/12/18 07:03:09;;;;;;;12.68;8.85;;;7.30;99.90;;;;;;5039181;28;20029;-77
2023/12/18 07:05:34;;;;;;;13.93;9.52;;;7.30;99.90;;;;;;5043400;28;20036;-76
2023/12/18 07:08:00;;;;;;;14.40;10.13;;;7.30;99.90;;;;;;5043691;28;20033;-75
2023/12/18 07:10:25;;;;;;;16.33;9.90;;;7.30;99.90;;;;;;5045343;28;20138;-74
2023/12/18 07:12:51;;;;;;;20.05;9.77;;;7.30;99.90;;;;;;5043574;28;20037;-74
2023/12/18 07:15:17;;;;;;;16.73;9.73;;;7.30;99.90;;;;;;5043454;28;20032;-72
2023/12/18 07:17:42;;;;;;;16.40;10.05;;;7.30;99.90;;;;;;5043164;28;20082;-75
2023/12/18 07:20:08;;;;;;;16.67;9.68;;;7.30;99.90;;;;;;5043249;28;20032;-75
2023/12/18 07:22:34;;;;;;;21.40;10.52;;;7.30;99.90;;;;;;5043420;28;20452;-75
2023/12/18 07:25:00;;;;;;;16.55;9.75;;;7.30;99.90;;;;;;5043291;28;20044;-73
2023/12/18 07:27:26;;;;;;;18.08;10.10;;;7.30;99.90;;;;;;5045088;28;20025;-75
2023/12/18 07:29:51;;;;;;;18.00;9.57;;;7.30;99.90;;;;;;5041754;28;20037;-75
2023/12/18 07:32:17;;;;;;;14.13;9.15;;;7.30;99.90;;;;;;5041569;28;20036;-75
2023/12/18 07:34:42;;;;;;;17.05;10.15;;;7.30;99.90;;;;;;5042766;28;20127;-75
2023/12/18 07:37:08;;;;;;;18.00;10.00;;;7.30;99.90;;;;;;5042679;28;20016;-75
2023/12/18 07:39:34;;;;;;;13.10;8.45;;;7.30;99.90;;;;;;5038712;28;20068;-74
2023/12/18 07:42:00;;;;;;;13.68;9.23;;;7.30;99.90;;;;;;5042810;28;20109;-74
2023/12/18 07:44:25;;;;;;;12.82;9.07;;;7.30;99.90;;;;;;5042806;28;20047;-74
2023/12/18 07:46:52;;;;;;;14.38;9.35;;;7.30;99.90;;;;;;5039128;28;20429;-74
2023/12/18 07:49:17;;;;;;;15.93;10.23;;;7.40;99.90;;;;;;5038858;28;20035;-53
2023/12/18 07:51:43;;;;;;;17.15;10.60;;;7.40;99.90;;;;;;5041000;28;20100;-54
2023/12/18 07:54:08;;;;;;;16.92;10.32;;;7.40;99.90;;;;;;5043720;28;20075;-55
2023/12/18 07:56:34;;;;;;;14.13;8.88;;;7.40;99.90;;;;;;5043859;28;20060;-53
2023/12/18 07:59:00;;;;;;;17.42;9.32;;;7.40;99.90;;;;;;5042560;28;20095;-55
2023/12/18 08:01:25;;;;;;;12.48;8.18;;;7.40;99.90;;;;;;5041924;28;20036;-54
2023/12/18 08:03:53;;;;;;;16.67;10.45;;;7.50;99.90;;;;;;5042221;28;20021;-50
2023/12/18 08:06:22;;;;;;;18.10;10.60;;;7.50;99.90;;;;;;5038560;28;20025;-55
2023/12/18 08:08:50;;;;;;;14.68;9.07;;;7.50;99.90;;;;;;5042205;28;20039;-54
2023/12/18 08:11:22;;;;;;;16.73;10.27;;;7.50;99.90;;;;;;5038050;28;20112;-54
2023/12/18 08:13:51;;;;;;;17.20;9.25;;;7.50;99.90;;;;;;5042058;28;20021;-54
2023/12/18 08:16:17;;;;;;;15.00;10.35;;;7.60;99.90;;;;;;5040595;28;20178;-55
2023/12/18 08:18:42;;;;;;;15.70;9.82;;;7.60;99.90;;;;;;5042114;28;20546;-52
2023/12/18 08:21:14;;;;;;;14.52;9.40;;;7.60;99.90;;;;;;5043704;28;20104;-55
2023/12/18 08:23:41;;;;;;;13.15;8.73;;;7.70;99.90;;;;;;5040179;28;20192;-54
2023/12/18 08:26:09;;;;;;;16.00;10.10;;;7.70;99.90;;;;;;5041995;28;20398;-55
2023/12/18 08:28:41;;;;;;;11.07;8.48;;;7.80;99.90;;;;;;5041851;28;20161;-54
2023/12/18 08:31:07;;;;;;;15.80;8.23;;;7.80;99.90;;;;;;5041788;28;20017;-53
2023/12/18 08:33:32;;;;;;;11.65;8.48;;;7.80;99.90;;;;;;5041529;28;20499;-55
2023/12/18 08:35:57;;;;;;;15.63;9.60;;;7.90;99.90;;;;;;5040051;28;20283;-54
2023/12/18 08:38:33;;;;;;;15.73;9.07;;;7.90;99.90;;;;;;5038981;28;20025;-58
2023/12/18 08:40:58;;;;;;;12.88;8.13;;;8.00;99.90;;;;;;5038740;28;20108;-55
2023/12/18 08:43:24;;;;;;;13.02;8.75;;;8.00;99.90;;;;;;5041344;28;20213;-53
2023/12/18 08:45:50;;;;;;;15.43;8.38;;;7.90;99.90;;;;;;5043190;28;20418;-55
2023/12/18 08:48:15;;;;;;;12.68;8.93;;;7.90;99.90;;;;;;5041371;28;20028;-55
2023/12/18 08:50:41;;;;;;;12.85;7.97;;;7.90;99.90;;;;;;5037158;28;20033;-54
2023/12/18 08:53:07;;;;;;;16.27;8.20;;;7.90;99.90;;;;;;5041508;28;20025;-55
2023/12/18 08:55:37;;;;;;;12.65;6.57;;;7.90;99.90;;;;;;5041188;28;20112;-53
2023/12/18 08:58:03;;;;;;;12.52;8.77;;;7.90;99.90;;;;;;5041007;28;20035;-52
2023/12/18 09:00:28;;;;;;;14.27;7.97;;;7.90;99.90;;;;;;5039536;28;20043;-54
2023/12/18 09:02:54;;;;;;;16.42;8.38;;;7.90;99.90;;;;;;5044625;28;20032;-54
2023/12/18 09:05:20;;;;;;;13.85;8.35;;;7.90;99.90;;;;;;5041121;28;20446;-53
2023/12/18 09:07:49;;;;;;;14.00;8.85;;;7.90;99.90;;;;;;5040176;28;20040;-55
2023/12/18 09:10:17;;;;;;;15.25;7.78;;;7.80;99.90;;;;;;5041186;28;20445;-55
2023/12/18 09:12:42;;;;;;;10.98;7.88;;;7.80;99.90;;;;;;5040195;28;20108;-55
2023/12/18 09:15:08;;;;;;;12.55;8.13;;;7.90;99.90;;;;;;5040975;28;20113;-53
2023/12/18 09:17:34;;;;;;;15.23;7.82;;;7.80;99.90;;;;;;5040601;28;20495;-55
2023/12/18 09:20:00;;;;;;;11.27;7.32;;;7.80;99.90;;;;;;5038494;28;20485;-54
2023/12/18 09:22:26;;;;;;;9.68;6.78;;;7.80;99.90;;;;;;5043109;28;20101;-55
2023/12/18 09:24:51;;;;;;;15.55;9.10;;;7.80;99.90;;;;;;5041342;28;20124;-54
2023/12/18 09:27:17;;;;;;;13.82;7.80;;;7.80;99.90;;;;;;5043245;28;20380;-54
2023/12/18 09:29:42;;;;;;;13.68;8.90;;;7.80;99.90;;;;;;5040539;28;20029;-53
2023/12/18 09:32:07;;;;;;;11.82;7.35;;;7.80;99.90;;;;;;5040596;28;20021;-55
2023/12/18 09:34:36;;;;;;;13.98;7.90;;;7.80;99.90;;;;;;5040431;28;20067;-54
2023/12/18 09:37:05;;;;;;;14.93;9.13;;;7.80;99.90;;;;;;5040599;28;20025;-57
2023/12/18 09:39:31;;;;;;;14.63;8.43;;;7.80;99.90;;;;;;5035896;28;20079;-53
2023/12/18 09:42:01;;;;;;;17.40;9.18;;;7.80;99.90;;;;;;5040746;28;20444;-55
2023/12/18 09:44:29;;;;;;;14.00;9.20;;;7.90;99.90;;;;;;5040669;28;20075;-51
2023/12/18 09:46:57;;;;;;;18.13;10.00;;;7.90;99.90;;;;;;5034291;28;20698;-55
2023/12/18 09:49:25;;;;;;;13.32;8.75;;;7.80;99.90;;;;;;5040353;28;20107;-55
2023/12/18 09:51:55;;;;;;;12.70;8.88;;;7.90;99.90;;;;;;5042247;28;20107;-55
2023/12/18 09:54:26;;;;;;;20.92;8.13;;;7.90;99.90;;;;;;5036045;28;20116;-55
2023/12/18 09:56:52;;;;;;;11.38;8.30;;;7.90;99.90;;;;;;5040085;28;20048;-54
2023/12/18 09:59:21;;;;;;;15.18;8.68;;;7.90;99.90;;;;;;5040174;28;20029;-52
2023/12/18 10:01:46;;;;;;;12.65;8.38;;;7.90;99.90;;;;;;5039886;28;20033;-55
2023/12/18 10:04:15;;;;;;;14.70;8.68;;;7.90;99.90;;;;;;5040197;28;20530;-54
2023/12/18 10:06:48;;;;;;;14.00;8.27;;;7.90;99.90;;;;;;5042014;28;20414;-55
2023/12/18 10:09:14;;;;;;;15.43;9.15;;;7.90;99.90;;;;;;5038967;28;20040;-55
2023/12/18 10:11:41;;;;;;;13.55;8.25;;;7.90;99.90;;;;;;5041792;28;20415;-55
2023/12/18 10:14:07;;;;;;;13.55;8.18;;;7.90;99.90;;;;;;5036120;28;20016;-55
2023/12/18 10:16:32;;;;;;;14.68;8.90;;;7.90;99.90;;;;;;5039917;28;20580;-56
2023/12/18 10:18:58;;;;;;;16.83;8.82;;;7.90;99.90;;;;;;5039693;28;20513;-55
2023/12/18 10:21:24;;;;;;;14.75;8.05;;;7.90;99.90;;;;;;5038608;28;20423;-54
2023/12/18 10:23:53;;;;;;;13.95;7.88;;;7.90;99.90;;;;;;5038823;28;20049;-55
2023/12/18 10:26:19;;;;;;;13.93;7.75;;;7.90;99.90;;;;;;5037365;28;20112;-54
2023/12/18 10:28:45;;;;;;;8.95;6.97;;;8.00;99.90;;;;;;5039714;28;20112;-55
2023/12/18 10:31:14;;;;;;;11.55;7.10;;;8.00;99.90;;;;;;5039726;28;20028;-57
2023/12/18 10:33:43;;;;;;;11.85;6.85;;;8.00;99.90;;;;;;5042345;28;20037;-55
2023/12/18 10:36:09;;;;;;;11.85;6.88;;;8.00;99.90;;;;;;5017880;28;20045;-53
2023/12/18 10:38:40;;;;;;;13.07;7.50;;;8.00;99.90;;;;;;5013861;28;20030;-55
2023/12/18 10:41:12;;;;;;;13.55;7.43;;;8.00;99.90;;;;;;5017107;28;20515;-54
2023/12/18 10:43:39;;;;;;;13.88;7.93;;;8.10;99.90;;;;;;5017681;28;20617;-55
2023/12/18 10:46:05;;;;;;;15.18;8.00;;;8.10;99.90;;;;;;5019648;28;20057;-54
2023/12/18 10:48:32;;;;;;;12.48;7.20;;;8.10;99.90;;;;;;5019527;28;20120;-55
2023/12/18 10:50:59;;;;;;;14.25;8.73;;;8.20;99.90;;;;;;5021549;28;20579;-54
2023/12/18 10:53:25;;;;;;;14.30;8.35;;;8.20;99.90;;;;;;5021278;28;20037;-54
2023/12/18 10:55:53;;;;;;;15.30;7.95;;;8.20;99.90;;;;;;5019582;28;20635;-54
2023/12/18 10:58:20;;;;;;;13.55;7.03;;;8.20;99.90;;;;;;5019756;28;20048;-54
2023/12/18 11:00:48;;;;;;;12.75;7.90;;;8.30;99.90;;;;;;5019324;28;20028;-52
2023/12/18 11:03:18;;;;;;;13.13;8.63;;;8.30;99.90;;;;;;5021314;28;20033;-55
2023/12/18 11:05:46;;;;;;;17.15;8.98;;;8.30;99.90;;;;;;5031275;28;20072;-54
2023/12/18 11:08:15;;;;;;;15.20;9.30;;;8.30;99.90;;;;;;5016250;28;20017;-55
2023/12/18 11:10:43;;;;;;;14.20;8.93;;;8.20;99.90;;;;;;5012528;28;20037;-54
2023/12/18 11:13:21;;;;;;;14.40;8.20;;;8.30;99.90;;;;;;5019571;28;20060;-54
2023/12/18 11:16:15;;;;;;;11.90;7.72;;;8.30;99.90;;;;;;5016968;28;20029;-55
2023/12/18 11:19:39;;;;;;;16.42;8.30;;;8.30;99.90;;;;;;5019619;28;20029;-55
2023/12/18 11:22:07;;;;;;;14.82;8.75;;;8.30;99.90;;;;;;4946872;28;20186;-55
2023/12/18 11:24:38;;;;;;;13.73;9.50;;;8.20;99.90;;;;;;4947333;28;20038;-52
2023/12/18 11:27:07;;;;;;;13.07;8.30;;;8.20;99.90;;;;;;4989614;28;20053;-53
2023/12/18 11:29:45;;;;;;;14.63;8.68;;;8.20;99.90;;;;;;5021455;28;20087;-55
2023/12/18 11:32:30;;;;;;;12.15;8.02;;;8.20;99.90;;;;;;5023182;28;20025;-55
2023/12/18 11:35:01;;;;;;;13.40;8.30;;;8.20;99.90;;;;;;5020674;28;20033;-53
2023/12/18 11:37:26;;;;;;;15.30;9.35;;;8.30;99.90;;;;;;5019746;28;20163;-53
2023/12/18 11:39:52;;;;;;;14.73;7.85;;;8.30;99.90;;;;;;5021766;28;20101;-68
2023/12/18 11:42:46;;;;;;;12.68;8.60;;;8.20;99.90;;;;;;5021381;28;20025;-67
2023/12/18 11:45:13;;;;;;;18.40;8.35;;;8.20;99.90;;;;;;5022655;28;20033;-68
2023/12/18 11:47:39;;;;;;;14.88;9.02;;;8.20;99.90;;;;;;5022473;28;20107;-68
2023/12/18 11:50:06;;;;;;;19.20;9.95;;;8.20;99.90;;;;;;5022802;28;20032;-67
2023/12/18 11:52:32;;;;;;;12.85;8.35;;;8.20;99.90;;;;;;5022659;28;20036;-67
2023/12/18 11:54:57;;;;;;;18.60;9.32;;;8.20;99.90;;;;;;5024699;28;20025;-68
2023/12/18 11:57:23;;;;;;;15.50;9.75;;;8.20;99.90;;;;;;5020979;28;20037;-68
2023/12/18 11:59:48;;;;;;;15.38;8.75;;;8.20;99.90;;;;;;5022671;28;20048;-68
2023/12/18 12:02:15;;;;;;;14.18;9.38;;;8.20;99.90;;;;;;5022300;28;20033;-68
2023/12/18 12:04:42;;;;;;;14.48;9.18;;;8.10;99.90;;;;;;5022253;28;20104;-69
2023/12/18 12:07:11;;;;;;;17.05;9.65;;;8.20;99.90;;;;;;5022434;28;20049;-68
2023/12/18 12:09:37;;;;;;;15.43;9.32;;;8.10;99.90;;;;;;5022164;28;20053;-67
2023/12/18 12:12:02;;;;;;;17.95;9.02;;;8.10;99.90;;;;;;5020207;28;20466;-69
2023/12/18 12:14:28;;;;;;;14.18;9.27;;;8.20;99.90;;;;;;5021990;28;20041;-68
2023/12/18 12:17:03;;;;;;;15.55;9.00;;;8.20;99.90;;;;;;5022201;28;20458;-68
2023/12/18 12:19:33;;;;;;;18.65;9.75;;;8.20;99.90;;;;;;5021997;28;20407;-68
2023/12/18 12:22:00;;;;;;;12.45;8.70;;;8.20;99.90;;;;;;5021950;28;20091;-56
2023/12/18 12:24:25;;;;;;;15.73;8.48;;;8.20;99.90;;;;;;5021912;28;20087;-69
2023/12/18 12:26:51;;;;;;;16.48;9.68;;;8.20;99.90;;;;;;5021973;28;20438;-70
2023/12/18 12:29:16;;;;;;;15.23;8.75;;;8.20;99.90;;;;;;5020621;28;20128;-70
2023/12/18 12:31:43;;;;;;;15.02;9.05;;;8.20;99.90;;;;;;5019346;28;20278;-71
2023/12/18 12:34:11;;;;;;;16.02;9.52;;;8.20;99.90;;;;;;5021778;28;20086;-71
2023/12/18 12:36:37;;;;;;;19.10;9.77;;;8.20;99.90;;;;;;5021902;28;20040;-70
2023/12/18 12:39:04;;;;;;;17.42;9.23;;;8.20;99.90;;;;;;5020818;28;20021;-70
2023/12/18 12:41:30;;;;;;;18.38;9.63;;;8.20;99.90;;;;;;5021386;28;20109;-71
2023/12/18 12:43:58;;;;;;;15.73;8.93;;;8.20;99.90;;;;;;5021871;28;20574;-72